Flight Track Log - Related Links

Times and Time Zones

All times are in EDT time to prevent confusion due to time zone crossing. See the ANA9397 flight status page for this flight to view local times or setup timezone preferences in your user account.

Time Position Orientation Groundspeed Altitude Reporting Facility
EDT Latitude Longitude Course Direction KTS MPH feet Rate Location/Type
Fri 07:42:53 PM 47.9700 -122.2850 357° North 180 207 2,700  Level FlightAware ADS-B
Fri 07:43:26 PM 47.9950 -122.2860 358° North 205 236 3,400 1,151 Climbing FlightAware ADS-B
Fri 07:44:06 PM 48.0400 -122.2950 352° North 258 297 4,100 1,429 Climbing FlightAware ADS-B
Fri 07:44:29 PM 48.0560 -122.3240 310° West 266 306 4,900 1,529 Climbing FlightAware ADS-B
Fri 07:44:57 PM 48.0590 -122.3450 282° West 270 311 5,400 3,000 Climbing FlightAware ADS-B
Fri 07:45:19 PM 48.0392 -122.4250 250° West 277 319 7,400 4,216 Climbing FlightAware ADS-B
Fri 07:45:34 PM 48.0318 -122.4520 248° West 280 322 8,000 1,946 Climbing FlightAware ADS-B
Fri 07:45:56 PM 48.0215 -122.4910 248° West 285 328 8,600 1,263 Climbing FlightAware ADS-B
Fri 07:46:12 PM 48.0130 -122.5230 248° West 296 341 8,800 1,333 Climbing FlightAware ADS-B
Fri 07:46:32 PM 48.0032 -122.5590 248° West 298 343 9,400 1,787 Climbing FlightAware ADS-B
Fri 07:46:59 PM 47.9894 -122.6140 249° West 310 357 10,200 1,535 Climbing FlightAware ADS-B
Fri 07:47:15 PM 47.9876 -122.6480 265° West 329 379 10,500 960 Climbing FlightAware ADS-B
Fri 07:47:24 PM 47.9897 -122.6680 279° West 338 389 10,600 1,050 Climbing FlightAware ADS-B
Fri 07:47:55 PM 48.0019 -122.7410 284° West 366 421 11,200 1,574 Climbing FlightAware ADS-B
Fri 07:48:25 PM 48.0150 -122.8180 284° West 382 440 12,200 2,459 Climbing FlightAware ADS-B
Fri 07:48:56 PM 48.0280 -122.8960 284° West 384 442 13,700 2,852 Climbing FlightAware ADS-B
Fri 07:49:26 PM 48.0407 -122.9730 284° West 385 443 15,100 2,600 Climbing FlightAware ADS-B
Fri 07:49:56 PM 48.0535 -123.0520 284° West 392 451 16,300 2,400 Climbing FlightAware ADS-B
Fri 07:50:26 PM 48.0667 -123.1320 284° West 397 457 17,500 2,066 Climbing FlightAware ADS-B
Fri 07:50:57 PM 48.0799 -123.2130 284° West 406 467 18,400 1,869 Climbing FlightAware ADS-B
Fri 07:51:27 PM 48.0933 -123.2960 284° West 413 475 19,400 1,913 Climbing FlightAware ADS-B
Fri 07:52:06 PM 48.1110 -123.4070 283° West 417 480 20,600 1,835 Climbing FlightAware ADS-B
Fri 07:52:52 PM 48.1310 -123.5340 283° West 428 493 22,000 1,881 Climbing FlightAware ADS-B
Fri 07:53:13 PM 48.1416 -123.5980 284° West 433 498 22,700 1,846 Climbing FlightAware ADS-B
Fri 07:53:44 PM 48.1560 -123.6880 284° West 440 506 23,600 1,672 Climbing FlightAware ADS-B
Fri 07:54:14 PM 48.1703 -123.7790 283° West 447 514 24,400 1,770 Climbing FlightAware ADS-B
Fri 07:54:45 PM 48.1845 -123.8720 283° West 450 518 25,400 1,770 Climbing FlightAware ADS-B
Fri 07:55:15 PM 48.1989 -123.9640 283° West 454 522 26,200 1,600 Climbing FlightAware ADS-B
Fri 07:55:45 PM 48.2135 -124.0580 283° West 461 531 27,000 1,574 Climbing FlightAware ADS-B
Fri 07:56:16 PM 48.2282 -124.1530 283° West 465 535 27,800 1,377 Climbing FlightAware ADS-B
Fri 07:56:46 PM 48.2428 -124.2480 283° West 473 544 28,400 1,364 Climbing FlightAware ADS-B
Fri 07:57:00 PM 48.2502 -124.2920 284° West 474 545 28,800 1,231 Climbing FlightAware ADS-B
Fri 07:57:25 PM 48.2774 -124.3610 301° West 470 541 29,200 1,238 Climbing FlightAware ADS-B
Fri 07:58:03 PM 48.3291 -124.4570 309° West 476 548 30,100 1,371 Climbing FlightAware ADS-B
Fri 07:58:35 PM 48.3730 -124.5410 308° West 479 551 30,800 1,333 Climbing FlightAware ADS-B
Fri 07:59:15 PM 48.4320 -124.6400 312° West 483 556 31,700 1,535 Climbing FlightAware ADS-B
Fri 08:00:01 PM 48.5010 -124.7550 312° West 480 552 33,000 1,364 Climbing FlightAware ADS-B
Fri 08:00:43 PM 48.5640 -124.8590 312° West 487 560 33,700 1,214 Climbing FlightAware ADS-B
Fri 08:01:25 PM 48.6280 -124.9650 312° West 485 558 34,700 1,244 Climbing FlightAware ADS-B
Fri 08:02:05 PM 48.6860 -125.0630 312° West 485 558 35,400 1,350 Climbing FlightAware ADS-B
Fri 08:02:45 PM 48.7470 -125.1650 312° West 477 549 36,500 2,071 Climbing FlightAware ADS-B
Fri 08:03:29 PM 48.8100 -125.2710 312° West 452 520 38,300 1,857 Climbing FlightAware ADS-B
Fri 08:04:09 PM 48.8640 -125.3630 312° West 442 509 39,100 988 Climbing FlightAware ADS-B
Fri 08:04:54 PM 48.9250 -125.4670 312° West 439 505 39,700 635 Climbing FlightAware ADS-B
Fri 08:05:34 PM 48.9780 -125.5570 312° West 439 505 40,000 225 Climbing FlightAware ADS-B
Fri 08:06:14 PM 49.0300 -125.6470 311° West 438 504 40,000  Level FlightAware ADS-B
Fri 08:06:59 PM 49.0890 -125.7470 312° West 439 505 40,000  Level FlightAware ADS-B
Fri 08:07:35 PM 49.1400 -125.8360 311° West 445 512 40,000  Level FlightAware ADS-B
Fri 08:08:20 PM 49.2010 -125.9420 311° West 449 517 40,000  Level FlightAware ADS-B
Fri 08:09:09 PM 49.2590 -126.0400 312° West 449 517 40,000  Level FlightAware ADS-B
Fri 08:09:44 PM 49.3140 -126.1380 311° West 452 520 40,000  Level FlightAware ADS-B
Fri 08:10:33 PM 49.3720 -126.2380 312° West 452 520 40,000  Level FlightAware ADS-B
Fri 08:11:35 PM 49.4310 -126.3440 311° West 457 526 40,000  Level FlightAware ADS-B
Fri 08:12:15 PM 49.4790 -126.4270 312° West 457 526 40,000  Level FlightAware ADS-B
Fri 08:14:12 PM 49.6790 -126.7850 311° West 464 534 40,000  Level FlightAware ADS-B
Fri 08:14:46 PM 49.7200 -126.8570 311° West 464 534 40,000  Level FlightAware ADS-B
Fri 08:15:49 PM 49.8270 -127.0520 310° West 476 548 40,000  Level FlightAware ADS-B
Fri 08:16:45 PM 49.9060 -127.1950 311° West 478 550 40,000  Level FlightAware ADS-B
Fri 08:17:24 PM 49.9590 -127.2910 311° West 481 554 40,000  Level FlightAware ADS-B
Fri 08:18:19 PM 50.0390 -127.4370 311° West 484 557 40,000  Level FlightAware ADS-B
Fri 08:19:06 PM 50.1020 -127.5530 310° West 483 556 40,000  Level FlightAware ADS-B
Fri 08:19:39 PM 50.1540 -127.6500 310° West 484 557 40,000  Level FlightAware ADS-B
Fri 08:20:53 PM 50.2630 -127.8530 310° West 484 557 40,000  Level FlightAware ADS-B
Fri 08:21:34 PM 50.3180 -127.9570 310° West 488 562 40,000  Level FlightAware ADS-B
Fri 08:22:32 PM 50.3970 -128.1060 310° West 488 562 40,000  Level FlightAware ADS-B
Fri 08:23:09 PM 50.4600 -128.2230 310° West 492 566 40,000  Level FlightAware ADS-B
Fri 08:23:59 PM 50.5220 -128.3400 310° West 492 566 40,000  Level FlightAware ADS-B
Fri 08:24:39 PM 50.5870 -128.4650 309° West 495 570 40,000  Level FlightAware ADS-B
Fri 08:25:17 PM 50.6340 -128.5550 309° West 495 570 40,000  Level FlightAware ADS-B
Fri 08:26:18 PM 50.7110 -128.6980 310° West 495 570 40,000  Level FlightAware ADS-B
Fri 08:26:57 PM 50.7590 -128.7900 310° West 495 570 40,000  Level FlightAware ADS-B
Fri 08:27:58 PM 50.8360 -128.9340 310° West 495 570 40,000  Level FlightAware ADS-B
Fri 08:28:33 PM 50.8800 -129.0170 310° West 495 570 40,000  Level FlightAware ADS-B
Fri 08:29:36 PM 50.9580 -129.1660 310° West 495 570 40,000  Level FlightAware ADS-B
Fri 08:30:16 PM 51.0080 -129.2610 310° West 495 570 40,000  Level FlightAware ADS-B
Fri 08:31:39 PM 51.1120 -129.4580 310° West 495 570 40,000  Level FlightAware ADS-B
Fri 08:32:06 PM 51.1460 -129.5220 310° West 495 570 40,000  Level FlightAware ADS-B
Fri 08:32:43 PM 51.1920 -129.6100 310° West 495 570 40,000  Level FlightAware ADS-B
Fri 08:33:44 PM 51.2690 -129.7550 310° West 495 570 40,000  Level FlightAware ADS-B
Fri 08:34:19 PM 51.3120 -129.8380 310° West 495 570 40,000  Level FlightAware ADS-B
Fri 08:35:45 PM 51.5333 -130.3833 310° West 490 564 40,000  Level Vancouver Center
Fri 08:36:46 PM 51.6167 -130.5833 304° West 490 564 40,000  Level Vancouver Center
Fri 08:37:45 PM 51.6833 -130.7333 306° West 490 564 40,000  Level Vancouver Center
Fri 08:38:45 PM 51.7833 -130.9000 314° West 490 564 40,000  Level Vancouver Center
Fri 08:39:45 PM 51.8500 -131.0833 301° West 490 564 40,000  Level Vancouver Center
Fri 08:40:19 PM 51.9167 -131.1500 328° Northwest 490 564 40,000  Level Anchorage Center
Fri 08:41:19 PM 52.0000 -131.3167 309° West 490 564 40,000  Level Anchorage Center
Fri 08:42:20 PM 52.0833 -131.5000 307° West 500 575 40,000  Level Anchorage Center
Fri 08:43:20 PM 52.1667 -131.6667 309° West 500 575 40,000  Level Anchorage Center
Fri 08:44:20 PM 52.2500 -131.8667 304° West 500 575 40,000  Level Anchorage Center
Fri 08:45:21 PM 52.3333 -132.0333 309° West 500 575 40,000  Level Anchorage Center
Fri 08:46:21 PM 52.4167 -132.2333 304° West 500 575 40,000  Level Anchorage Center
Fri 08:47:21 PM 52.5000 -132.4167 307° West 500 575 40,000  Level Anchorage Center
Fri 08:48:22 PM 52.5833 -132.6000 307° West 510 587 40,000  Level Anchorage Center
Fri 08:49:22 PM 52.6667 -132.7833 307° West 510 587 40,000  Level Anchorage Center
Fri 08:50:22 PM 52.7500 -132.9833 305° West 510 587 40,000  Level Anchorage Center
Fri 08:51:23 PM 52.8167 -133.1667 301° West 510 587 40,000  Level Anchorage Center
Fri 08:52:23 PM 52.9167 -133.3500 312° West 500 575 40,000  Level Anchorage Center
Fri 08:53:23 PM 52.9833 -133.5333 301° West 510 587 40,000  Level Anchorage Center
Fri 08:54:23 PM 53.0667 -133.7333 305° West 500 575 40,000  Level Anchorage Center
Fri 08:55:24 PM 53.1500 -133.9167 307° West 510 587 40,000  Level Anchorage Center
Fri 08:56:24 PM 53.2333 -134.1167 305° West 500 575 40,000  Level Anchorage Center
Fri 08:57:24 PM 53.3167 -134.3000 307° West 510 587 40,000  Level Anchorage Center
Fri 08:58:25 PM 53.4000 -134.5000 305° West 500 575 40,000  Level Anchorage Center
Fri 08:59:25 PM 53.4667 -134.6833 301° West 500 575 40,000  Level Anchorage Center
Fri 09:00:26 PM 53.5500 -134.8833 305° West 500 575 40,000  Level Anchorage Center
Fri 09:01:26 PM 53.6333 -135.0833 305° West 500 575 40,000  Level Anchorage Center
Fri 09:02:26 PM 53.7167 -135.2833 305° West 500 575 40,000  Level Anchorage Center
Fri 09:03:27 PM 53.7833 -135.4667 302° West 500 575 40,000  Level Anchorage Center
Fri 09:04:27 PM 53.8667 -135.6667 305° West 500 575 40,000  Level Anchorage Center
Fri 09:05:27 PM 53.9333 -135.8500 302° West 500 575 40,000  Level Anchorage Center
Fri 09:06:28 PM 54.0167 -136.0667 303° West 490 564 40,000  Level Anchorage Center
Fri 09:07:28 PM 54.0833 -136.2667 300° West 500 575 40,000  Level Anchorage Center
Fri 09:08:28 PM 54.1500 -136.4833 298° West 490 564 40,000  Level Anchorage Center
Fri 09:09:29 PM 54.2167 -136.6833 300° West 500 575 40,000  Level Anchorage Center
Fri 09:10:29 PM 54.2833 -136.8833 300° West 490 564 40,000  Level Anchorage Center
Fri 09:11:29 PM 54.3333 -137.1000 292° West 490 564 40,000  Level Anchorage Center
Fri 09:12:29 PM 54.4000 -137.3000 300° West 500 575 40,000  Level Anchorage Center
Fri 09:13:30 PM 54.4667 -137.5167 298° West 490 564 40,000  Level Anchorage Center
Fri 09:14:30 PM 54.5333 -137.7167 300° West 500 575 40,000  Level Anchorage Center
Fri 09:15:30 PM 54.6000 -137.9333 298° West 480 552 40,000  Level Anchorage Center
Fri 09:16:31 PM 54.6500 -138.1500 292° West 490 564 40,000  Level Anchorage Center
Fri 09:17:31 PM 54.7167 -138.3500 300° West 490 564 40,000  Level Anchorage Center
Fri 09:18:31 PM 54.7833 -138.5667 298° West 490 564 40,000  Level Anchorage Center
Fri 09:19:32 PM 54.8500 -138.7833 298° West 490 564 40,000  Level Anchorage Center
Fri 09:20:32 PM 54.9000 -139.0000 292° West 500 575 40,000  Level Anchorage Center
Fri 09:21:32 PM 54.9667 -139.2000 300° West 490 564 40,000  Level Anchorage Center
Fri 09:22:33 PM 55.0333 -139.4167 298° West 490 564 40,000  Level Anchorage Center
Fri 09:23:33 PM 55.0833 -139.6333 292° West 490 564 40,000  Level Anchorage Center
Fri 09:24:34 PM 55.1500 -139.8500 298° West 480 552 40,000  Level Anchorage Center
Fri 09:25:34 PM 55.2000 -140.0667 292° West 490 564 40,000  Level Anchorage Center
Fri 09:26:34 PM 55.2667 -140.2833 298° West 490 564 40,000  Level Anchorage Center
Fri 09:27:35 PM 55.3333 -140.5000 298° West 490 564 40,000  Level Anchorage Center
Fri 09:28:35 PM 55.3833 -140.7167 292° West 490 564 40,000  Level Anchorage Center
Fri 09:29:35 PM 55.4333 -140.9333 292° West 480 552 40,000  Level Anchorage Center
Fri 09:30:36 PM 55.5000 -141.1500 299° West 490 564 40,000  Level Anchorage Center
Fri 09:31:36 PM 55.5500 -141.3667 292° West 490 564 40,000  Level Anchorage Center
Fri 09:32:36 PM 55.6000 -141.5833 292° West 470 541 40,000  Level Anchorage Center
Fri 09:34:37 PM 55.7167 -142.0167 296° West 480 552 40,000  Level Anchorage Center
Fri 09:35:37 PM 55.7667 -142.2500 291° West 480 552 40,000  Level Anchorage Center
Fri 09:36:37 PM 55.8333 -142.4667 299° West 480 552 40,000  Level Anchorage Center
Fri 09:37:38 PM 55.8833 -142.6833 292° West 480 552 40,000  Level Anchorage Center
Fri 09:38:38 PM 55.9333 -142.9000 292° West 480 552 40,000  Level Anchorage Center
Fri 09:39:38 PM 55.9833 -143.1000 294° West 480 552 40,000  Level Anchorage Center
Fri 09:40:39 PM 56.0333 -143.3333 291° West 500 575 40,000  Level Anchorage Center
Fri 09:41:39 PM 56.0833 -143.5667 291° West 490 564 40,000  Level Anchorage Center
Fri 09:42:39 PM 56.1333 -143.7667 294° West 470 541 40,000  Level Anchorage Center
Fri 09:43:40 PM 56.1833 -144.0167 290° West 490 564 40,000  Level Anchorage Center
Fri 09:44:40 PM 56.2333 -144.2333 293° West 480 552 40,000  Level Anchorage Center
Fri 09:45:41 PM 56.2833 -144.4500 293° West 470 541 40,000  Level Anchorage Center
Fri 09:46:41 PM 56.3333 -144.6833 291° West 490 564 40,000  Level Anchorage Center
Fri 09:47:41 PM 56.3833 -144.9000 293° West 480 552 40,000  Level Anchorage Center
Fri 09:48:42 PM 56.4500 -145.1667 294° West 480 552 40,000  Level Anchorage Center
Fri 09:49:42 PM 56.4833 -145.3500 288° West 470 541 40,000  Level Anchorage Center
Fri 09:50:42 PM 56.5333 -145.6167 289° West 470 541 40,000  Level Anchorage Center
Fri 09:51:43 PM 56.5833 -145.8333 293° West 470 541 40,000  Level Anchorage Center
Fri 09:52:42 PM 56.6333 -146.0667 291° West 480 552 40,000  Level Anchorage Center
Fri 09:53:43 PM 56.6833 -146.2833 293° West 470 541 40,000  Level Anchorage Center
Fri 09:54:43 PM 56.7167 -146.5167 285° West 470 541 40,000  Level Anchorage Center
Fri 09:55:43 PM 56.7667 -146.7333 293° West 450 518 40,000  Level Anchorage Center
Fri 09:56:44 PM 56.8167 -146.9500 293° West 460 529 40,000  Level Anchorage Center
Fri 09:57:44 PM 56.8500 -147.1667 286° West 460 529 40,000  Level Anchorage Center
Fri 09:58:45 PM 56.9000 -147.4000 292° West 460 529 40,000  Level Anchorage Center
Fri 09:59:45 PM 56.9500 -147.6167 293° West 460 529 40,000  Level Anchorage Center
Fri 10:00:45 PM 56.9833 -147.8500 285° West 450 518 40,000  Level Anchorage Center
Fri 10:01:46 PM 57.0333 -148.0667 293° West 460 529 40,000  Level Anchorage Center
Fri 10:02:46 PM 57.0667 -148.2833 286° West 460 529 40,000  Level Anchorage Center
Fri 10:03:46 PM 57.1167 -148.5167 292° West 460 529 40,000  Level Anchorage Center
Fri 10:04:47 PM 57.1500 -148.7333 286° West 460 529 40,000  Level Anchorage Center
Fri 10:05:47 PM 57.1833 -148.9667 285° West 460 529 40,000  Level Anchorage Center
Fri 10:06:47 PM 57.2333 -149.1833 293° West 450 518 40,000  Level Anchorage Center
Fri 10:07:48 PM 57.2667 -149.4167 285° West 460 529 40,000  Level Anchorage Center
Fri 10:08:48 PM 57.3167 -149.6500 292° West 460 529 40,000  Level Anchorage Center
Fri 10:09:48 PM 57.3500 -149.8833 285° West 460 529 40,000  Level Anchorage Center
Fri 10:10:49 PM 57.3833 -150.1000 286° West 460 529 40,000  Level Anchorage Center
Fri 10:11:49 PM 57.4167 -150.3333 285° West 450 518 40,000  Level Anchorage Center
Fri 10:12:49 PM 57.4667 -150.5500 293° West 460 529 40,000  Level Anchorage Center
Fri 10:13:50 PM 57.5000 -150.7833 285° West 460 529 40,000  Level Anchorage Center
Fri 10:14:50 PM 57.5333 -151.0333 284° West 450 518 40,000  Level Anchorage Center
Fri 10:15:50 PM 57.5667 -151.2500 286° West 450 518 40,000  Level Anchorage Center
Fri 10:16:50 PM 57.6000 -151.4833 285° West 450 518 40,000  Level Anchorage Center
Fri 10:17:51 PM 57.6333 -151.7000 286° West 450 518 40,000  Level Anchorage Center
Fri 10:18:51 PM 57.6667 -151.9333 285° West 450 518 40,000  Level Anchorage Center
Fri 10:19:51 PM 57.7000 -152.1667 285° West 450 518 40,000  Level Anchorage Center
Fri 10:20:52 PM 57.7333 -152.4000 285° West 450 518 40,000  Level Anchorage Center
Fri 10:21:52 PM 57.7500 -152.6333 278° West 450 518 40,000  Level Anchorage Center
Fri 10:22:52 PM 57.7833 -152.8667 285° West 450 518 40,000  Level Anchorage Center
Fri 10:23:53 PM 57.8167 -153.1000 285° West 450 518 40,000  Level Anchorage Center
Fri 10:24:53 PM 57.8500 -153.3167 286° West 450 518 40,000  Level Anchorage Center
Fri 10:25:53 PM 57.8833 -153.5500 285° West 450 518 40,000  Level Anchorage Center
Fri 10:26:54 PM 57.9167 -153.7833 285° West 450 518 40,000  Level Anchorage Center
Fri 10:27:54 PM 57.9333 -154.0167 278° West 440 506 40,000  Level Anchorage Center
Fri 10:28:54 PM 57.9667 -154.2500 285° West 450 518 40,000  Level Anchorage Center
Fri 10:29:55 PM 58.0000 -154.4833 285° West 460 529 40,000  Level Anchorage Center
Fri 10:30:55 PM 58.0167 -154.7167 278° West 450 518 40,000  Level Anchorage Center
Fri 10:31:56 PM 58.0500 -154.9500 285° West 460 529 40,000  Level Anchorage Center
Fri 10:32:56 PM 58.0667 -155.1833 278° West 450 518 40,000  Level Anchorage Center
Fri 10:33:57 PM 58.1000 -155.4333 284° West 460 529 40,000  Level Anchorage Center
Fri 10:34:57 PM 58.1333 -155.6667 285° West 460 529 40,000  Level Anchorage Center
Fri 10:35:57 PM 58.1500 -155.9000 278° West 460 529 40,000  Level Anchorage Center
Fri 10:36:58 PM 58.1833 -156.1500 284° West 460 529 40,000  Level Anchorage Center
Fri 10:37:58 PM 58.2000 -156.3833 278° West 460 529 40,000  Level Anchorage Center
Fri 10:38:58 PM 58.2333 -156.6333 284° West 460 529 40,000  Level Anchorage Center
Fri 10:39:59 PM 58.2500 -156.8667 278° West 460 529 40,000  Level Anchorage Center
Fri 10:40:59 PM 58.2833 -157.1333 283° West 460 529 40,000  Level Anchorage Center
Fri 10:41:59 PM 58.3000 -157.3833 277° West 470 541 40,000  Level Anchorage Center
Fri 10:43:00 PM 58.3167 -157.6167 278° West 460 529 40,000  Level Anchorage Center
Fri 10:44:00 PM 58.3500 -157.8667 284° West 470 541 40,000  Level Anchorage Center
Fri 10:45:00 PM 58.3667 -158.1167 277° West 460 529 40,000  Level Anchorage Center
Fri 10:46:01 PM 58.3833 -158.3667 277° West 470 541 40,000  Level Anchorage Center
Fri 10:47:01 PM 58.4167 -158.6000 285° West 470 541 40,000  Level Anchorage Center
Fri 10:48:01 PM 58.4333 -158.8500 277° West 470 541 40,000  Level Anchorage Center
Fri 10:49:02 PM 58.4500 -159.1000 277° West 460 529 40,000  Level Anchorage Center
Fri 10:50:02 PM 58.4667 -159.3500 277° West 470 541 40,000  Level Anchorage Center
Fri 10:51:03 PM 58.4833 -159.6000 277° West 470 541 40,000  Level Anchorage Center
Fri 10:52:02 PM 58.5000 -159.8500 277° West 480 552 40,000  Level Anchorage Center
Fri 10:53:03 PM 58.5333 -160.1167 284° West 480 552 40,000  Level Anchorage Center
Fri 10:54:03 PM 58.5500 -160.3667 277° West 480 552 40,000  Level Anchorage Center
Fri 10:55:03 PM 58.5667 -160.6167 277° West 480 552 40,000  Level Anchorage Center
Fri 10:56:04 PM 58.5833 -160.8833 277° West 480 552 40,000  Level Anchorage Center
Fri 10:57:04 PM 58.6000 -161.1333 277° West 470 541 40,000  Level Anchorage Center
Fri 10:58:04 PM 58.6167 -161.4000 277° West 490 564 40,000  Level Anchorage Center
Fri 10:59:05 PM 58.6333 -161.6500 277° West 470 541 40,000  Level Anchorage Center
Fri 11:00:05 PM 58.6333 -161.9167 270° West 480 552 40,000  Level Anchorage Center
Fri 11:01:05 PM 58.6500 -162.2000 277° West 500 575 40,000  Level Anchorage Center
Fri 11:02:06 PM 58.6667 -162.4667 277° West 490 564 40,000  Level Anchorage Center
Fri 11:03:06 PM 58.6833 -162.7167 277° West 480 552 40,000  Level Anchorage Center
Fri 11:04:06 PM 58.6833 -162.9833 270° West 490 564 40,000  Level Anchorage Center
Fri 11:05:07 PM 58.7000 -163.2333 277° West 480 552 40,000  Level Anchorage Center
Fri 11:06:07 PM 58.7167 -163.5000 277° West 470 541 40,000  Level Anchorage Center
Fri 11:07:07 PM 58.7167 -163.7500 270° West 480 552 40,000  Level Anchorage Center
Fri 11:08:08 PM 58.7333 -164.0167 277° West 480 552 40,000  Level Anchorage Center
Fri 11:09:08 PM 58.7333 -164.2833 270° West 480 552 40,000  Level Anchorage Center
Fri 11:10:07 PM 58.7500 -164.5333 277° West 480 552 40,000  Level Anchorage Center
Fri 11:11:07 PM 58.7500 -164.8000 270° West 480 552 40,000  Level Anchorage Center
Fri 11:12:07 PM 58.7500 -165.0500 270° West 470 541 40,000  Level Anchorage Center
Fri 11:13:07 PM 58.7667 -165.3167 277° West 490 564 40,000  Level Anchorage Center
Fri 11:14:07 PM 58.7667 -165.5833 270° West 480 552 40,000  Level Anchorage Center
Fri 11:15:07 PM 58.7667 -165.8333 270° West 480 552 40,000  Level Anchorage Center
Fri 11:16:07 PM 58.7833 -166.1000 277° West 480 552 40,000  Level Anchorage Center
Fri 11:17:07 PM 58.7833 -166.3500 270° West 480 552 40,000  Level Anchorage Center
Fri 11:18:07 PM 58.7833 -166.6167 270° West 470 541 40,000  Level Anchorage Center
Fri 11:19:08 PM 58.7833 -166.8500 270° West 480 552 40,000  Level Anchorage Center
Fri 11:20:07 PM 58.7833 -167.1167 270° West 470 541 40,000  Level Anchorage Center
Fri 11:21:08 PM 58.8000 -167.3667 277° West 480 552 40,000  Level Anchorage Center
Fri 11:22:08 PM 58.7833 -167.6333 263° West 470 541 40,000  Level Anchorage Center
Fri 11:23:08 PM 58.8000 -167.8833 277° West 480 552 40,000  Level Anchorage Center
Fri 11:24:08 PM 58.8000 -168.1500 270° West 480 552 40,000  Level Anchorage Center
Fri 11:25:08 PM 58.8000 -168.4167 270° West 480 552 40,000  Level Anchorage Center
Fri 11:26:08 PM 58.8000 -168.6667 270° West 480 552 40,000  Level Anchorage Center
Fri 11:27:08 PM 58.8000 -168.9333 270° West 490 564 40,000  Level Anchorage Center
Fri 11:28:08 PM 58.7833 -169.1833 263° West 480 552 40,000  Level Anchorage Center
Fri 11:29:08 PM 58.7833 -169.4500 270° West 500 575 40,000  Level Anchorage Center
Fri 11:30:08 PM 58.7833 -169.7167 270° West 490 564 40,000  Level Anchorage Center
Fri 11:31:08 PM 58.7833 -169.9833 270° West 480 552 40,000  Level Anchorage Center
Fri 11:32:08 PM 58.7833 -170.2500 270° West 480 552 40,000  Level Anchorage Center
Fri 11:33:08 PM 58.7667 -170.5167 263° West 500 575 40,000  Level Anchorage Center
Fri 11:34:08 PM 58.7667 -170.7667 270° West 480 552 40,000  Level Anchorage Center
Fri 11:35:08 PM 58.7667 -171.0500 270° West 490 564 40,000  Level Anchorage Center
Fri 11:36:09 PM 58.7500 -171.3000 263° West 490 564 40,000  Level Anchorage Center
Fri 11:37:09 PM 58.7500 -171.5667 270° West 480 552 40,000  Level Anchorage Center
Fri 11:38:09 PM 58.7333 -171.8167 263° West 490 564 40,000  Level Anchorage Center
Fri 11:39:09 PM 58.7167 -172.0833 263° West 480 552 40,000  Level Anchorage Center
Fri 11:40:09 PM 58.7000 -172.3500 263° West 490 564 40,000  Level Anchorage Center
Fri 11:41:09 PM 58.7000 -172.6167 270° West 490 564 40,000  Level Anchorage Center
Fri 11:42:09 PM 58.6833 -172.8667 263° West 490 564 40,000  Level Anchorage Center
Fri 11:43:09 PM 58.6667 -173.1500 264° West 510 587 40,000  Level Anchorage Center
Fri 11:44:09 PM 58.6500 -173.4000 263° West 480 552 40,000  Level Anchorage Center
Fri 11:45:09 PM 58.6333 -173.6667 263° West 490 564 40,000  Level Anchorage Center
Fri 11:46:09 PM 58.6167 -173.9167 263° West 490 564 40,000  Level Anchorage Center
Fri 11:47:09 PM 58.6000 -174.1833 263° West 480 552 40,000  Level Anchorage Center
Fri 11:48:09 PM 58.5833 -174.4500 263° West 490 564 40,000  Level Anchorage Center
Fri 11:49:09 PM 58.5667 -174.7000 263° West 490 564 40,000  Level Anchorage Center
Fri 11:50:10 PM 58.5500 -174.9667 263° West 490 564 40,000  Level Anchorage Center
Fri 11:51:10 PM 58.5333 -175.2333 263° West 490 564 40,000  Level Anchorage Center
Fri 11:52:10 PM 58.5167 -175.4833 263° West 490 564 40,000  Level Anchorage Center
Fri 11:53:10 PM 58.4833 -175.7500 257° West 500 575 40,000  Level Anchorage Center
Fri 11:54:10 PM 58.4667 -176.0167 263° West 500 575 40,000  Level Anchorage Center
Fri 11:55:10 PM 58.4500 -176.2833 263° West 500 575 40,000  Level Anchorage Center
Fri 11:56:10 PM 58.4167 -176.5500 257° West 500 575 40,000  Level Anchorage Center
Fri 11:57:09 PM 58.4000 -176.8000 263° West 500 575 40,000  Level Anchorage Center
Fri 11:58:10 PM 58.3667 -177.0667 257° West 490 564 40,000  Level Anchorage Center
Sat 12:01:00 AM 58.2741 -177.4790 245° Southwest  Level FlightAware Approximate
Sat 12:08:00 AM 57.8815 -179.0182 245° Southwest  Level FlightAware Approximate
Sat 12:09:00 AM 57.8239 -179.2353 244° Southwest  Level FlightAware Approximate
Sat 12:10:00 AM 57.7660 -179.4517 243° Southwest  Level FlightAware Approximate
Sat 12:11:00 AM 57.7077 -179.6674 243° Southwest  Level FlightAware Approximate
Sat 12:12:00 AM 57.6490 -179.8825 243° Southwest  Level FlightAware Approximate
Sat 12:13:00 AM 57.5894 179.9037 242° Southwest  Level FlightAware Approximate
Sat 12:14:00 AM 57.5287 179.6913 242° Southwest  Level FlightAware Approximate
Sat 12:15:00 AM 57.4677 179.4797 242° Southwest  Level FlightAware Approximate
Sat 12:16:00 AM 57.4063 179.2687 242° Southwest  Level FlightAware Approximate
Sat 12:17:00 AM 57.3446 179.0584 242° Southwest  Level FlightAware Approximate
Sat 12:18:00 AM 57.2825 178.8488 241° Southwest  Level FlightAware Approximate
Sat 12:19:00 AM 57.2201 178.6400 241° Southwest  Level FlightAware Approximate
Sat 12:20:00 AM 57.1573 178.4318 241° Southwest  Level FlightAware Approximate
Sat 12:21:00 AM 57.0942 178.2244 241° Southwest  Level FlightAware Approximate
Sat 12:22:00 AM 57.0307 178.0177 241° Southwest  Level FlightAware Approximate
Sat 12:23:00 AM 56.9669 177.8116 240° Southwest  Level FlightAware Approximate
Sat 12:24:00 AM 56.9028 177.6063 240° Southwest  Level FlightAware Approximate
Sat 12:25:00 AM 56.8383 177.4017 240° Southwest  Level FlightAware Approximate
Sat 12:26:00 AM 56.7737 177.1976 240° Southwest  Level FlightAware Approximate
Sat 12:27:00 AM 56.7087 176.9942 240° Southwest  Level FlightAware Approximate
Sat 12:28:00 AM 56.6434 176.7915 240° Southwest  Level FlightAware Approximate
Sat 12:29:00 AM 56.5778 176.5895 240° Southwest  Level FlightAware Approximate
Sat 12:29:48 AM 56.2833 175.7333 239° Southwest 480 552 40,000  Level Anchorage Center
Sat 12:30:00 AM 56.5119 176.3882 239° Southwest  Level FlightAware Approximate
Sat 12:30:47 AM 56.2333 175.5333 246° West 500 575 40,000  Level Anchorage Center
Sat 12:31:00 AM 56.4457 176.1876 239° Southwest  Level FlightAware Approximate
Sat 12:31:47 AM 56.1500 175.3000 237° Southwest 510 587 40,000  Level Anchorage Center
Sat 12:32:00 AM 56.3791 175.9877 239° Southwest  Level FlightAware Approximate
Sat 12:32:47 AM 56.0667 175.0833 235° Southwest 500 575 40,000  Level Anchorage Center
Sat 12:33:00 AM 56.3122 175.7885 239° Southwest  Level FlightAware Approximate
Sat 12:33:47 AM 56.0000 174.9000 237° Southwest 500 575 40,000  Level Anchorage Center
Sat 12:34:00 AM 56.2450 175.5900 239° Southwest  Level FlightAware Approximate
Sat 12:34:47 AM 55.9333 174.6667 243° Southwest 500 575 40,000  Level Anchorage Center
Sat 12:35:00 AM 56.1775 175.3922 239° Southwest  Level FlightAware Approximate
Sat 12:35:47 AM 55.8667 174.4833 237° Southwest 490 564 40,000  Level Anchorage Center
Sat 12:36:47 AM 55.7833 174.2667 236° Southwest 490 564 40,000  Level Anchorage Center
Sat 12:37:47 AM 55.7167 174.0833 237° Southwest 490 564 40,000  Level Anchorage Center
Sat 12:38:47 AM 55.6333 173.8500 238° Southwest 500 575 40,000  Level Anchorage Center
Sat 12:39:47 AM 55.5667 173.6833 235° Southwest 490 564 40,000  Level Anchorage Center
Sat 12:40:48 AM 55.4833 173.4667 236° Southwest 490 564 40,000  Level Anchorage Center
Sat 12:41:48 AM 55.4000 173.2333 238° Southwest 500 575 40,000  Level Anchorage Center
Sat 12:42:48 AM 55.3333 173.0667 235° Southwest 500 575 40,000  Level Anchorage Center
Sat 12:43:48 AM 55.2500 172.8500 236° Southwest 490 564 40,000  Level Anchorage Center
Sat 12:44:47 AM 55.1833 172.6667 238° Southwest 500 575 40,000  Level Anchorage Center
Sat 12:45:48 AM 55.1000 172.4500 236° Southwest 500 575 40,000  Level Anchorage Center
Sat 12:46:48 AM 55.0333 172.2833 235° Southwest 500 575 40,000  Level Anchorage Center
Sat 12:47:48 AM 54.9500 172.0667 236° Southwest 500 575 40,000  Level Anchorage Center
Sat 12:48:48 AM 54.8833 171.8833 238° Southwest 510 587 40,000  Level Anchorage Center
Sat 12:49:48 AM 54.8000 171.6833 234° Southwest 500 575 40,000  Level Anchorage Center
Sat 12:50:48 AM 54.7167 171.4667 236° Southwest 500 575 40,000  Level Anchorage Center
Sat 12:51:48 AM 54.6500 171.3000 235° Southwest 490 564 40,000  Level Anchorage Center
Sat 12:52:48 AM 54.5500 171.0833 232° Southwest 490 564 40,000  Level Anchorage Center
Sat 12:53:48 AM 54.4833 170.9167 235° Southwest 500 575 40,000 347 Level Anchorage Center
Sat 12:54:49 AM 54.4000 170.7167 234° Southwest 480 552 40,700 500 Climbing Anchorage Center
Sat 12:55:48 AM 54.3333 170.5500 236° Southwest 480 552 41,000 151 Climbing Anchorage Center
Sat 12:56:48 AM 54.2333 170.3500 230° Southwest 490 564 41,000  Level Anchorage Center
Sat 12:57:49 AM 54.1500 170.1500 235° Southwest 510 587 41,000  Level Anchorage Center
Sat 12:58:48 AM 54.0667 169.9833 230° Southwest 490 564 41,000  Level Anchorage Center
Sat 12:59:48 AM 53.9833 169.7833 235° Southwest 490 564 41,000  Level Anchorage Center
Sat 01:00:48 AM 53.9167 169.6333 233° Southwest 460 529 41,000  Level Anchorage Center
Sat 01:01:49 AM 53.8333 169.4333 235° Southwest 480 552 41,000  Level Anchorage Center
Sat 01:02:49 AM 53.7667 169.2833 233° Southwest 490 564 41,000  Level Anchorage Center
Sat 01:03:49 AM 53.6833 169.0667 237° Southwest 510 587 41,000  Level Anchorage Center
Sat 01:04:49 AM 53.6333 168.9000 243° Southwest 480 552 41,000  Level Anchorage Center
Sat 01:05:49 AM 53.5667 168.6833 243° Southwest 480 552 41,000  Level Anchorage Center
Sat 01:06:49 AM 53.4833 168.4833 235° Southwest 470 541 41,000  Level Anchorage Center
Sat 01:09:00 AM 53.4084 168.2583 241° Southwest  Level FlightAware Approximate
Sat 01:16:00 AM 52.9450 166.9542 240° Southwest  Level FlightAware Approximate
Sat 01:17:00 AM 52.8776 166.7703 239° Southwest  Level FlightAware Approximate
Sat 01:18:00 AM 52.8099 166.5869 239° Southwest  Level FlightAware Approximate
Sat 01:19:00 AM 52.7420 166.4041 239° Southwest  Level FlightAware Approximate
Sat 01:20:00 AM 52.6737 166.2218 238° Southwest  Level FlightAware Approximate
Sat 01:21:00 AM 52.6052 166.0401 238° Southwest  Level FlightAware Approximate
Sat 01:22:00 AM 52.5364 165.8590 238° Southwest  Level FlightAware Approximate
Sat 01:23:00 AM 52.4674 165.6785 238° Southwest  Level FlightAware Approximate
Sat 01:24:00 AM 52.3981 165.4985 238° Southwest  Level FlightAware Approximate
Sat 01:25:00 AM 52.3285 165.3191 238° Southwest  Level FlightAware Approximate
Sat 01:26:00 AM 52.2586 165.1403 237° Southwest  Level FlightAware Approximate
Sat 01:27:00 AM 52.1884 164.9620 237° Southwest  Level FlightAware Approximate
Sat 01:28:00 AM 52.1180 164.7843 237° Southwest  Level FlightAware Approximate
Sat 01:29:00 AM 52.0474 164.6071 237° Southwest  Level FlightAware Approximate
Sat 01:30:00 AM 51.9764 164.4305 237° Southwest  Level FlightAware Approximate
Sat 01:31:00 AM 51.9052 164.2545 237° Southwest  Level FlightAware Approximate
Sat 01:32:00 AM 51.8337 164.0790 237° Southwest  Level FlightAware Approximate
Sat 01:33:00 AM 51.7620 163.9041 237° Southwest  Level FlightAware Approximate
Sat 01:34:00 AM 51.6900 163.7298 236° Southwest  Level FlightAware Approximate
Sat 01:35:00 AM 51.6177 163.5560 236° Southwest  Level FlightAware Approximate
Sat 01:36:00 AM 51.5451 163.3828 236° Southwest  Level FlightAware Approximate
Sat 01:37:00 AM 51.4723 163.2102 236° Southwest  Level FlightAware Approximate
Sat 01:38:00 AM 51.3992 163.0382 236° Southwest  Level FlightAware Approximate
Sat 01:39:00 AM 51.3259 162.8667 236° Southwest  Level FlightAware Approximate
Sat 01:40:00 AM 51.2523 162.6957 236° Southwest  Level FlightAware Approximate
Sat 01:41:00 AM 51.1784 162.5253 235° Southwest  Level FlightAware Approximate
Sat 01:42:00 AM 51.1043 162.3555 235° Southwest  Level FlightAware Approximate
Sat 01:43:00 AM 51.0300 162.1861 235° Southwest  Level FlightAware Approximate
Sat 01:44:00 AM 50.9554 162.0174 235° Southwest  Level FlightAware Approximate
Sat 01:45:00 AM 50.8806 161.8491 235° Southwest  Level FlightAware Approximate
Sat 01:46:00 AM 50.8055 161.6814 235° Southwest  Level FlightAware Approximate
Sat 01:47:00 AM 50.7302 161.5143 235° Southwest  Level FlightAware Approximate
Sat 01:48:00 AM 50.6547 161.3477 234° Southwest  Level FlightAware Approximate
Sat 01:49:00 AM 50.5789 161.1816 234° Southwest  Level FlightAware Approximate
Sat 01:50:00 AM 50.5029 161.0161 234° Southwest  Level FlightAware Approximate
Sat 01:51:00 AM 50.4266 160.8510 234° Southwest  Level FlightAware Approximate
Sat 01:52:00 AM 50.3501 160.6866 234° Southwest  Level FlightAware Approximate
Sat 01:53:00 AM 50.2734 160.5226 234° Southwest  Level FlightAware Approximate
Sat 01:54:00 AM 50.1965 160.3592 234° Southwest  Level FlightAware Approximate
Sat 01:55:00 AM 50.1199 160.1956 234° Southwest  Level FlightAware Approximate
Sat 01:56:00 AM 50.0432 160.0325 234° Southwest  Level FlightAware Approximate
Sat 01:57:00 AM 49.9662 159.8699 234° Southwest  Level FlightAware Approximate
Sat 01:58:00 AM 49.8889 159.7079 234° Southwest  Level FlightAware Approximate
Sat 01:59:00 AM 49.8115 159.5463 233° Southwest  Level FlightAware Approximate
Sat 02:00:00 AM 49.7338 159.3853 233° Southwest  Level FlightAware Approximate
Sat 02:01:00 AM 49.6555 159.2423 233° Southwest  Level FlightAware Approximate
Sat 02:02:00 AM 49.5774 159.0832 233° Southwest  Level FlightAware Approximate
Sat 02:03:00 AM 49.4991 158.9245 233° Southwest  Level FlightAware Approximate
Sat 02:04:00 AM 49.4206 158.7664 233° Southwest  Level FlightAware Approximate
Sat 02:05:00 AM 49.3418 158.6088 233° Southwest  Level FlightAware Approximate
Sat 02:06:00 AM 49.2629 158.4516 232° Southwest  Level FlightAware Approximate
Sat 02:07:00 AM 49.1837 158.2950 232° Southwest  Level FlightAware Approximate
Sat 02:08:00 AM 49.1043 158.1389 232° Southwest  Level FlightAware Approximate
Sat 02:09:00 AM 49.0247 157.9833 232° Southwest  Level FlightAware Approximate
Sat 02:10:00 AM 48.9449 157.8282 232° Southwest  Level FlightAware Approximate
Sat 02:11:00 AM 48.8649 157.6735 232° Southwest  Level FlightAware Approximate
Sat 02:12:00 AM 48.7847 157.5194 232° Southwest  Level FlightAware Approximate
Sat 02:13:00 AM 48.7043 157.3658 232° Southwest  Level FlightAware Approximate
Sat 02:14:00 AM 48.6237 157.2126 232° Southwest  Level FlightAware Approximate
Sat 02:15:00 AM 48.5428 157.0599 231° Southwest  Level FlightAware Approximate
Sat 02:16:00 AM 48.4618 156.9078 231° Southwest  Level FlightAware Approximate
Sat 02:17:00 AM 48.3806 156.7561 231° Southwest  Level FlightAware Approximate
Sat 02:18:00 AM 48.2992 156.6049 231° Southwest  Level FlightAware Approximate
Sat 02:19:00 AM 48.2175 156.4541 231° Southwest  Level FlightAware Approximate
Sat 02:20:00 AM 48.1357 156.3039 231° Southwest  Level FlightAware Approximate
Sat 02:21:00 AM 48.0537 156.1541 231° Southwest  Level FlightAware Approximate
Sat 02:22:00 AM 47.9715 156.0049 231° Southwest  Level FlightAware Approximate
Sat 02:23:00 AM 47.8891 155.8560 230° Southwest  Level FlightAware Approximate
Sat 02:24:00 AM 47.8065 155.7077 230° Southwest  Level FlightAware Approximate
Sat 02:25:00 AM 47.7237 155.5598 230° Southwest  Level FlightAware Approximate
Sat 02:26:00 AM 47.6408 155.4124 230° Southwest  Level FlightAware Approximate
Sat 02:27:00 AM 47.5576 155.2655 230° Southwest  Level FlightAware Approximate
Sat 02:28:00 AM 47.4743 155.1190 230° Southwest  Level FlightAware Approximate
Sat 02:29:00 AM 47.3907 154.9731 230° Southwest  Level FlightAware Approximate
Sat 02:30:00 AM 47.3070 154.8275 230° Southwest  Level FlightAware Approximate
Sat 02:31:00 AM 47.2231 154.6824 230° Southwest  Level FlightAware Approximate
Sat 02:32:00 AM 47.1390 154.5378 230° Southwest  Level FlightAware Approximate
Sat 02:33:00 AM 47.0547 154.3936 229° Southwest  Level FlightAware Approximate
Sat 02:34:00 AM 46.9703 154.2500 229° Southwest  Level FlightAware Approximate
Sat 02:35:00 AM 46.8857 154.1067 229° Southwest  Level FlightAware Approximate
Sat 02:36:00 AM 46.8009 153.9639 229° Southwest  Level FlightAware Approximate
Sat 02:37:00 AM 46.7159 153.8215 229° Southwest  Level FlightAware Approximate
Sat 02:38:00 AM 46.6307 153.6797 229° Southwest  Level FlightAware Approximate
Sat 02:39:00 AM 46.5454 153.5382 229° Southwest  Level FlightAware Approximate
Sat 02:40:00 AM 46.4599 153.3972 229° Southwest  Level FlightAware Approximate
Sat 02:41:00 AM 46.3742 153.2566 229° Southwest  Level FlightAware Approximate
Sat 02:42:00 AM 46.2884 153.1165 228° Southwest  Level FlightAware Approximate
Sat 02:43:00 AM 46.2022 152.9769 228° Southwest  Level FlightAware Approximate
Sat 02:44:00 AM 46.1153 152.8386 228° Southwest  Level FlightAware Approximate
Sat 02:45:00 AM 46.0282 152.7008 228° Southwest  Level FlightAware Approximate
Sat 02:46:00 AM 45.9410 152.5633 228° Southwest  Level FlightAware Approximate
Sat 02:47:00 AM 45.8536 152.4263 228° Southwest  Level FlightAware Approximate
Sat 02:48:00 AM 45.7660 152.2897 227° Southwest  Level FlightAware Approximate
Sat 02:49:00 AM 45.6783 152.1536 227° Southwest  Level FlightAware Approximate
Sat 02:50:00 AM 45.5904 152.0179 227° Southwest  Level FlightAware Approximate
Sat 02:51:00 AM 45.5023 151.8826 227° Southwest  Level FlightAware Approximate
Sat 02:52:00 AM 45.4141 151.7477 227° Southwest  Level FlightAware Approximate
Sat 02:53:00 AM 45.3257 151.6133 227° Southwest  Level FlightAware Approximate
Sat 02:54:00 AM 45.2372 151.4792 227° Southwest  Level FlightAware Approximate
Sat 02:55:00 AM 45.1485 151.3456 227° Southwest  Level FlightAware Approximate
Sat 02:56:00 AM 45.0597 151.2124 227° Southwest  Level FlightAware Approximate
Sat 02:57:00 AM 44.9707 151.0796 227° Southwest  Level FlightAware Approximate
Sat 02:58:00 AM 44.8815 150.9472 226° Southwest  Level FlightAware Approximate
Sat 02:59:00 AM 44.7922 150.8153 226° Southwest  Level FlightAware Approximate
Sat 03:00:00 AM 44.7028 150.6837 226° Southwest  Level FlightAware Approximate
Sat 03:01:00 AM 44.6132 150.5526 226° Southwest  Level FlightAware Approximate
Sat 03:02:00 AM 44.5230 150.4224 226° Southwest  Level FlightAware Approximate
Sat 03:03:00 AM 44.4327 150.2926 226° Southwest  Level FlightAware Approximate
Sat 03:04:00 AM 44.3422 150.1633 226° Southwest  Level FlightAware Approximate
Sat 03:05:00 AM 44.2515 150.0344 226° Southwest  Level FlightAware Approximate
Sat 03:06:00 AM 44.1607 149.9059 225° Southwest  Level FlightAware Approximate
Sat 03:07:00 AM 44.0698 149.7778 225° Southwest  Level FlightAware Approximate
Sat 03:08:00 AM 43.9797 149.6486 226° Southwest  Level FlightAware Approximate
Sat 03:09:00 AM 43.8898 149.5195 226° Southwest  Level FlightAware Approximate
Sat 03:10:00 AM 43.7997 149.3908 226° Southwest  Level FlightAware Approximate
Sat 03:11:00 AM 43.7095 149.2625 226° Southwest  Level FlightAware Approximate
Sat 03:12:00 AM 43.6191 149.1345 226° Southwest  Level FlightAware Approximate
Sat 03:13:00 AM 43.5286 149.0069 226° Southwest  Level FlightAware Approximate
Sat 03:14:00 AM 43.4375 148.8805 225° Southwest  Level FlightAware Approximate
Sat 03:15:00 AM 43.3459 148.7548 225° Southwest  Level FlightAware Approximate
Sat 03:15:20 AM 43.3880 148.8130 225° Southwest 458 527 41,000  Level FlightAware ADS-B
Sat 03:16:00 AM 43.2542 148.6295 225° Southwest  Level FlightAware Approximate
Sat 03:16:25 AM 43.2930 148.6820 225° Southwest 457 526 41,000  Level FlightAware ADS-B
Sat 03:17:10 AM 43.2270 148.5930 225° Southwest 457 526 41,000  Level FlightAware ADS-B
Sat 03:17:50 AM 43.1630 148.5060 225° Southwest 458 527 41,000  Level FlightAware ADS-B
Sat 03:18:30 AM 43.1030 148.4250 225° Southwest 458 527 41,000  Level FlightAware ADS-B
Sat 03:19:10 AM 43.0440 148.3450 225° Southwest 458 527 41,000  Level FlightAware ADS-B
Sat 03:19:57 AM 42.9720 148.2470 225° Southwest 454 522 41,000  Level FlightAware ADS-B
Sat 03:20:37 AM 42.9200 148.1780 224° Southwest 454 522 41,000  Level FlightAware ADS-B
Sat 03:21:20 AM 42.8510 148.0850 225° Southwest 454 522 41,000  Level FlightAware ADS-B
Sat 03:22:03 AM 42.7850 147.9960 225° Southwest 455 524 41,000  Level FlightAware ADS-B
Sat 03:22:47 AM 42.7150 147.9030 224° Southwest 455 524 41,000  Level FlightAware ADS-B
Sat 03:23:27 AM 42.6530 147.8210 224° Southwest 456 525 41,000  Level FlightAware ADS-B
Sat 03:24:07 AM 42.5920 147.7400 224° Southwest 456 525 41,000  Level FlightAware ADS-B
Sat 03:24:53 AM 42.5240 147.6500 224° Southwest 456 525 41,000  Level FlightAware ADS-B
Sat 03:25:32 AM 42.4630 147.5700 224° Southwest 455 524 41,000  Level FlightAware ADS-B
Sat 03:26:17 AM 42.3930 147.4790 224° Southwest 454 522 41,000  Level FlightAware ADS-B
Sat 03:26:57 AM 42.3330 147.4000 224° Southwest 452 520 41,000  Level FlightAware ADS-B
Sat 03:27:38 AM 42.2710 147.3190 224° Southwest 451 519 41,000  Level FlightAware ADS-B
Sat 03:28:22 AM 42.2050 147.2320 224° Southwest 450 518 41,000  Level FlightAware ADS-B
Sat 03:29:02 AM 42.1430 147.1520 224° Southwest 449 517 41,000  Level FlightAware ADS-B
Sat 03:29:42 AM 42.0830 147.0740 224° Southwest 448 516 41,000  Level FlightAware ADS-B
Sat 03:31:07 AM 42.0220 146.9960 224° Southwest 453 521 41,000  Level FlightAware ADS-B
Sat 03:31:52 AM 41.8860 146.8210 224° Southwest 448 516 41,000  Level FlightAware ADS-B
Sat 03:32:32 AM 41.8260 146.7430 224° Southwest 447 514 41,000  Level FlightAware ADS-B
Sat 03:33:17 AM 41.7580 146.6560 224° Southwest 448 516 41,000  Level FlightAware ADS-B
Sat 03:33:57 AM 41.6970 146.5780 224° Southwest 449 517 41,000  Level FlightAware ADS-B
Sat 03:34:52 AM 41.6130 146.4720 223° Southwest 450 518 41,000  Level FlightAware ADS-B
Sat 03:35:49 AM 41.5290 146.3650 224° Southwest 452 520 41,000  Level FlightAware ADS-B
Sat 03:36:27 AM 41.4670 146.2870 223° Southwest 453 521 41,000  Level FlightAware ADS-B
Sat 03:37:17 AM 41.3910 146.1910 223° Southwest 453 521 41,000  Level FlightAware ADS-B
Sat 03:37:57 AM 41.3280 146.1120 223° Southwest 453 521 41,000  Level FlightAware ADS-B
Sat 03:38:37 AM 41.2660 146.0350 223° Southwest 452 520 41,000  Level FlightAware ADS-B
Sat 03:39:17 AM 41.2050 145.9590 223° Southwest 451 519 41,000  Level FlightAware ADS-B
Sat 03:40:02 AM 41.1360 145.8730 223° Southwest 450 518 41,000  Level FlightAware ADS-B
Sat 03:40:42 AM 41.0750 145.7970 223° Southwest 449 517 41,000  Level FlightAware ADS-B
Sat 03:41:22 AM 41.0130 145.7200 223° Southwest 448 516 41,000  Level FlightAware ADS-B
Sat 03:42:07 AM 40.9450 145.6360 223° Southwest 447 514 41,000  Level FlightAware ADS-B
Sat 03:42:52 AM 40.8760 145.5520 223° Southwest 448 516 41,000  Level FlightAware ADS-B
Sat 03:43:32 AM 40.8140 145.4750 223° Southwest 449 517 41,000  Level FlightAware ADS-B
Sat 03:44:12 AM 40.7520 145.3990 223° Southwest 450 518 41,000  Level FlightAware ADS-B
Sat 03:45:27 AM 40.6400 145.2640 222° Southwest 457 526 41,000  Level FlightAware ADS-B
Sat 03:46:01 AM 40.5950 145.2110 222° Southwest 457 526 41,000  Level FlightAware ADS-B
Sat 03:46:49 AM 40.5310 145.1350 222° Southwest 457 526 41,000  Level FlightAware ADS-B
Sat 03:47:23 AM 40.4850 145.0810 222° Southwest 457 526 41,000  Level FlightAware ADS-B
Sat 03:48:11 AM 40.4210 145.0050 222° Southwest 457 526 41,000  Level FlightAware ADS-B
Sat 03:48:35 AM 40.3670 144.8830 240° Southwest 445 512 41,000  Level FlightAware ADS-B
Sat 03:49:16 AM 40.3270 144.7960 239° Southwest 445 512 41,000  Level FlightAware ADS-B
Sat 03:50:00 AM 40.2760 144.6870 239° Southwest 438 504 41,000  Level FlightAware ADS-B
Sat 03:50:47 AM 40.2320 144.5920 239° Southwest 438 504 41,000  Level FlightAware ADS-B
Sat 03:51:25 AM 40.1880 144.5000 238° Southwest 439 505 41,000  Level FlightAware ADS-B
Sat 03:52:04 AM 40.1530 144.4250 239° Southwest 439 505 41,000  Level FlightAware ADS-B
Sat 03:53:15 AM 40.0900 144.2870 239° Southwest 439 505 41,000  Level FlightAware ADS-B
Sat 03:54:04 AM 40.0460 144.1930 239° Southwest 439 505 41,000  Level FlightAware ADS-B
Sat 03:54:41 AM 40.0140 144.1210 240° Southwest 439 505 41,000  Level FlightAware ADS-B
Sat 03:57:00 AM 39.8426 143.8005 235° Southwest  Level FlightAware Approximate
Sat 03:58:00 AM 39.7734 143.6579 238° Southwest  Level FlightAware Approximate
Sat 03:59:00 AM 39.7049 143.5152 238° Southwest  Level FlightAware Approximate
Sat 04:00:00 AM 39.6362 143.3728 238° Southwest  Level FlightAware Approximate
Sat 04:01:00 AM 39.5673 143.2307 238° Southwest  Level FlightAware Approximate
Sat 04:01:23 AM 39.5400 143.1550 238° Southwest 443 510 41,000  Level FlightAware ADS-B
Sat 04:01:58 AM 39.4990 143.0710 238° Southwest 443 510 41,000  Level FlightAware ADS-B
Sat 04:02:48 AM 39.4390 142.9550 236° Southwest 441 507 41,000  Level FlightAware ADS-B
Sat 04:03:27 AM 39.3870 142.8730 231° Southwest 444 511 41,000  Level FlightAware ADS-B
Sat 04:04:13 AM 39.3230 142.7820 228° Southwest 450 518 41,000  Level FlightAware ADS-B
Sat 04:04:52 AM 39.2680 142.7040 228° Southwest 449 517 41,000  Level FlightAware ADS-B
Sat 04:05:37 AM 39.2060 142.6170 227° Southwest 449 517 41,000  Level FlightAware ADS-B
Sat 04:06:13 AM 39.1550 142.5450 228° Southwest 450 518 41,000  Level FlightAware ADS-B
Sat 04:06:57 AM 39.0930 142.4590 227° Southwest 447 514 41,000  Level FlightAware ADS-B
Sat 04:07:43 AM 39.0280 142.3690 227° Southwest 440 506 41,000  Level FlightAware ADS-B
Sat 04:08:22 AM 38.9740 142.2940 227° Southwest 447 514 41,000  Level FlightAware ADS-B
Sat 04:09:07 AM 38.9060 142.2170 221° Southwest 447 514 41,000  Level FlightAware ADS-B
Sat 04:09:47 AM 38.8350 142.1540 215° Southwest 450 518 41,000  Level FlightAware ADS-B
Sat 04:10:40 AM 38.7560 142.0840 215° Southwest 456 525 41,000  Level FlightAware ADS-B
Sat 04:11:34 AM 38.6530 141.9920 215° Southwest 455 524 41,000  Level FlightAware ADS-B
Sat 04:12:09 AM 38.5870 141.9340 214° Southwest 455 524 41,000  Level FlightAware ADS-B
Sat 04:12:55 AM 38.5080 141.8640 215° Southwest 449 517 41,000  Level FlightAware ADS-B
Sat 04:13:35 AM 38.4380 141.8030 214° Southwest 456 525 41,000  Level FlightAware ADS-B
Sat 04:14:18 AM 38.3680 141.7410 215° Southwest 455 524 41,000  Level FlightAware ADS-B
Sat 04:14:57 AM 38.3010 141.6820 215° Southwest 454 522 41,000  Level FlightAware ADS-B
Sat 04:15:43 AM 38.2170 141.6080 215° Southwest 453 521 41,000  Level FlightAware ADS-B
Sat 04:16:23 AM 38.1490 141.5480 215° Southwest 453 521 41,000 -209 Level FlightAware ADS-B
Sat 04:17:09 AM 38.0700 141.4800 214° Southwest 435 501 40,700 -1,129 Descending FlightAware ADS-B
Sat 04:17:48 AM 38.0040 141.4230 214° Southwest 434 499 39,400 -2,444 Descending FlightAware ADS-B
Sat 04:18:30 AM 37.9380 141.3650 215° Southwest 444 511 37,400 -2,602 Descending FlightAware ADS-B
Sat 04:19:11 AM 37.8650 141.3010 215° Southwest 437 503 35,800 -2,697 Descending FlightAware ADS-B
Sat 04:19:59 AM 37.7880 141.2340 215° Southwest 446 513 33,400 -1,960 Descending FlightAware ADS-B
Sat 04:20:52 AM 37.7020 141.1610 214° Southwest 442 509 32,500 -1,009 Descending FlightAware ADS-B
Sat 04:21:46 AM 37.6070 141.0790 214° Southwest 435 501 31,600 -938 Descending FlightAware ADS-B
Sat 04:22:28 AM 37.5400 141.0220 214° Southwest 429 494 31,000 -955 Descending FlightAware ADS-B
Sat 04:23:14 AM 37.4590 140.9530 214° Southwest 428 493 30,200 -1,000 Descending FlightAware ADS-B
Sat 04:24:10 AM 37.3770 140.8830 214° Southwest 425 489 29,300 -968 Descending FlightAware ADS-B
Sat 04:24:47 AM 37.3130 140.8280 214° Southwest 422 486 28,700 -964 Descending FlightAware ADS-B
Sat 04:26:02 AM 37.1970 140.7300 214° Southwest 416 479 27,500 -974 Descending FlightAware ADS-B
Sat 04:26:44 AM 37.1250 140.6700 214° Southwest 411 473 26,800 -1,000 Descending FlightAware ADS-B
Sat 04:27:26 AM 37.0630 140.6170 214° Southwest 408 470 26,100 -338 Descending FlightAware ADS-B
Sat 04:29:06 AM 36.9240 140.5000 214° Southwest 408 470 26,000 -2,029 Descending FlightAware ADS-B
Sat 04:29:42 AM 36.8210 140.4930 183° South 391 450 21,500 -4,019 Descending FlightAware ADS-B
Sat 04:30:49 AM 36.7150 140.4470 199° South 372 428 19,100 -2,160 Descending FlightAware ADS-B
Sat 04:31:22 AM 36.6690 140.4270 199° South 362 417 17,900 -2,892 Descending FlightAware ADS-B
Sat 04:32:12 AM 36.5790 140.3870 200° South 345 397 15,100 -3,000 Descending FlightAware ADS-B
Sat 04:32:50 AM 36.5290 140.3650 199° South 345 397 13,500 -2,593 Descending FlightAware ADS-B
Sat 04:33:33 AM 36.4590 140.3350 199° South 338 389 11,600 -1,807 Descending FlightAware ADS-B
Sat 04:34:13 AM 36.4010 140.3100 199° South 308 354 11,000 -1,129 Descending FlightAware ADS-B
Sat 04:34:58 AM 36.3410 140.2840 199° South 289 333 10,000 -1,263 Descending FlightAware ADS-B
Sat 04:36:26 AM 36.2430 140.2400 200° South 292 336 8,200 -1,241 Descending FlightAware ADS-B
Sat 04:36:54 AM 36.1920 140.2180 199° South 280 322 7,600 -1,132 Descending FlightAware ADS-B
Sat 04:37:19 AM 36.1630 140.2050 200° South 260 299 7,200 -1,080 Descending FlightAware ADS-B
Sat 04:37:44 AM 36.1360 140.1930 200° South 247 284 6,700 -964 Descending FlightAware ADS-B
Sat 04:38:15 AM 36.1020 140.1780 200° South 252 290 6,300 -750 Descending FlightAware ADS-B
Sat 04:38:24 AM 36.0930 140.1730 204° Southwest 251 289 6,200 -150 Descending FlightAware ADS-B
Sat 04:38:55 AM 36.0590 140.1580 200° South 254 292 6,200  Level FlightAware ADS-B
Sat 04:39:24 AM 36.0220 140.1470 194° South 283 326 6,200 100 Level FlightAware ADS-B
Sat 04:39:55 AM 35.9820 140.1380 190° South 284 327 6,300  Climbing FlightAware ADS-B
Sat 04:40:21 AM 35.9510 140.1310 190° South 280 322 6,200 -111 Descending FlightAware ADS-B
Sat 04:40:49 AM 35.9140 140.1220 191° South 269 310 6,200 -566 Level FlightAware ADS-B
Sat 04:41:14 AM 35.8830 140.1160 189° South 266 306 5,700 -1,154 Descending FlightAware ADS-B
Sat 04:41:41 AM 35.8540 140.1090 191° South 262 302 5,200 -1,019 Descending FlightAware ADS-B
Sat 04:42:07 AM 35.8290 140.1040 189° South 260 299 4,800 -779 Descending FlightAware ADS-B
Sat 04:42:58 AM 35.7630 140.1190 170° South 244 281 4,200 -474 Descending FlightAware ADS-B
Sat 04:43:23 AM 35.7360 140.1310 160° South 244 281 4,200  Level FlightAware ADS-B
Sat 04:43:49 AM 35.7070 140.1440 160° South 245 282 4,200  Level FlightAware ADS-B
Sat 04:44:18 AM 35.6740 140.1580 161° South 254 292 4,200  Level FlightAware ADS-B
Sat 04:44:43 AM 35.6470 140.1690 162° South 235 270 4,200  Level FlightAware ADS-B
Sat 04:45:04 AM 35.6260 140.1780 161° South 223 257 4,200  Level FlightAware ADS-B
Sat 04:45:56 AM 35.5810 140.1700 188° South 211 243 4,200 97 Level FlightAware ADS-B
Sat 04:46:06 AM 35.5770 140.1590 246° West 209 241 4,300  Climbing FlightAware ADS-B
Sat 04:46:24 AM 35.5720 140.1420 250° West 210 242 4,200  Descending FlightAware ADS-B
Sat 04:46:55 AM 35.5710 140.1080 268° West 193 222 4,300 105 Climbing FlightAware ADS-B
Sat 04:47:21 AM 35.5710 140.0800 270° West 192 221 4,300 -105 Level FlightAware ADS-B
Sat 04:47:52 AM 35.5710 140.0430 270° West 195 224 4,200 -545 Descending FlightAware ADS-B
Sat 04:48:16 AM 35.5710 140.0150 270° West 196 226 3,800 -900 Descending FlightAware ADS-B
Sat 04:48:32 AM 35.5710 140.0010 270° West 196 226 3,600 -1,429 Descending FlightAware ADS-B
Sat 04:48:58 AM 35.5710 139.9710 270° West 188 216 2,800 -982 Descending FlightAware ADS-B
Sat 04:49:27 AM 35.5700 139.9410 268° West 171 197 2,700 -1,000 Descending FlightAware ADS-B
Sat 04:49:58 AM 35.5700 139.9120 270° West 169 194 1,800 -923 Descending FlightAware ADS-B
Sat 04:50:19 AM 35.5700 139.8960 270° West 163 188 1,900 -600 Climbing FlightAware ADS-B
Sat 04:51:28 AM 35.5600 139.8440 257° West 122 140 900 -832 Descending FlightAware ADS-B
Sat 04:52:00 AM 35.5480 139.8300 224° Southwest 112 129 500 -764 Descending FlightAware ADS-B
Sat 04:52:23 AM 35.5370 139.8180 222° Southwest 116 133 200 -783 Descending FlightAware ADS-B
Sat 04:52:42 AM 35.5310 139.8120 219° Southwest 58 67 -632 Descending FlightAware ADS-B
Sat 04:53:13 AM 35.5290 139.8080 238° Southwest 18 21  Level FlightAware ADS-B
Sat 04:53:54 AM 35.5300 139.8050 292° West 16 18  Level FlightAware ADS-B
Sat 04:54:18 AM 35.5320 139.8040 338° Northwest 22 25  Level FlightAware ADS-B
Sat 04:54:43 AM 35.5340 139.8030 338° Northwest 20 23  Level FlightAware ADS-B
Sat 04:55:03 AM 35.5360 139.8010 321° Northwest 21 24  Level FlightAware ADS-B
Sat 04:56:09 AM 35.5370 139.8000 321° Northwest 11 13  Level FlightAware ADS-B
Sat 04:57:48 AM 35.5350 139.7910 255° West 13 15  Level FlightAware ADS-B
Sat 04:58:02 AM 35.5360 139.7900 321° Northwest 12 14  Level FlightAware ADS-B
Sat 05:00:00 AM 35.5500 139.7667 202° Southwest  Level FlightAware Approximate
Sat 05:01:00 AM 35.5523 139.7797 202° Southwest  Level Estimated
Sat 05:02:00 AM 35.5523 139.7797 202° Southwest  Level Estimated
Sat 05:03:00 AM 35.5523 139.7797 202° Southwest  Level Estimated
Sat 05:04:00 AM 35.5523 139.7797 202° Southwest  Level Estimated
Sat 05:05:00 AM 35.5523 139.7797 202° Southwest  Level Estimated
Sat 05:06:00 AM 35.5523 139.7797 202° Southwest  Level Estimated
Sat 05:07:00 AM 35.5523 139.7797 202° Southwest  Level Estimated

Login

Don't have an account? Register now (free) for customized features, flight alerts, and more!